createdAt,value
2019-03-30T00:01:04.099Z,10.35
2019-03-30T00:03:33.056Z,9.35
2019-03-30T00:06:00.227Z,9.90
2019-03-30T00:08:27.584Z,9.75
2019-03-30T00:10:54.813Z,8.68
2019-03-30T00:13:21.713Z,9.15
2019-03-30T00:15:48.617Z,8.58
2019-03-30T00:18:15.375Z,8.83
2019-03-30T00:20:42.549Z,8.68
2019-03-30T00:23:09.692Z,8.80
2019-03-30T00:25:36.751Z,8.78
2019-03-30T00:28:03.858Z,9.10
2019-03-30T00:30:31.179Z,9.50
2019-03-30T00:32:58.281Z,8.93
2019-03-30T00:35:25.478Z,9.58
2019-03-30T00:37:52.435Z,9.73
2019-03-30T00:40:19.486Z,9.60
2019-03-30T00:42:47.178Z,9.08
2019-03-30T00:45:15.309Z,9.55
2019-03-30T00:47:42.266Z,9.60
2019-03-30T00:50:09.279Z,9.45
2019-03-30T00:52:36.635Z,8.93
2019-03-30T00:55:05.338Z,9.25
2019-03-30T00:57:32.452Z,9.30
2019-03-30T00:59:59.951Z,9.90
2019-03-30T01:02:27.729Z,8.70
2019-03-30T01:04:54.678Z,8.63
2019-03-30T01:07:23.944Z,9.25
2019-03-30T01:09:50.721Z,9.25
2019-03-30T01:12:17.651Z,9.40
2019-03-30T01:14:44.676Z,8.73
2019-03-30T01:17:11.681Z,9.25
2019-03-30T01:19:39.755Z,10.03
2019-03-30T01:22:06.783Z,9.93
2019-03-30T01:24:33.598Z,9.53
2019-03-30T01:27:00.529Z,9.55
2019-03-30T01:29:27.441Z,9.35
2019-03-30T01:31:54.347Z,10.05
2019-03-30T01:34:21.168Z,8.60
2019-03-30T01:36:47.944Z,9.80
2019-03-30T01:39:14.737Z,10.58
2019-03-30T01:41:41.910Z,9.78
2019-03-30T01:44:08.664Z,10.75
2019-03-30T01:46:35.797Z,9.88
2019-03-30T01:49:02.818Z,9.88
2019-03-30T01:51:29.788Z,9.80
2019-03-30T01:53:56.560Z,9.75
2019-03-30T01:56:23.410Z,10.08
2019-03-30T01:58:50.791Z,9.40
2019-03-30T02:01:17.745Z,10.10
2019-03-30T02:03:45.033Z,9.88
2019-03-30T02:06:11.772Z,10.43
2019-03-30T02:08:38.820Z,9.95
2019-03-30T02:11:05.821Z,9.80
2019-03-30T02:13:32.595Z,10.48
2019-03-30T02:16:00.088Z,11.12
2019-03-30T02:18:27.117Z,10.90
2019-03-30T02:20:54.371Z,10.40
2019-03-30T02:23:21.240Z,10.90
2019-03-30T02:25:48.595Z,11.18
2019-03-30T02:28:16.392Z,11.15
2019-03-30T02:30:43.486Z,11.33
2019-03-30T02:33:10.596Z,11.18
2019-03-30T02:35:37.405Z,11.10
2019-03-30T02:38:04.351Z,11.33
2019-03-30T02:40:31.229Z,10.90
2019-03-30T02:43:02.346Z,10.32
2019-03-30T02:45:29.750Z,10.60
2019-03-30T02:47:56.634Z,10.80
2019-03-30T02:50:23.508Z,10.98
2019-03-30T02:52:50.416Z,10.55
2019-03-30T02:55:17.292Z,10.45
2019-03-30T02:57:44.162Z,10.08
2019-03-30T03:00:13.559Z,10.63
2019-03-30T03:02:40.418Z,11.38
2019-03-30T03:05:08.995Z,10.70
2019-03-30T03:07:35.851Z,10.78
2019-03-30T03:10:06.396Z,10.93
2019-03-30T03:12:33.551Z,10.45
2019-03-30T03:15:07.352Z,10.18
2019-03-30T03:17:34.225Z,10.68
2019-03-30T03:20:01.421Z,10.20
2019-03-30T03:22:28.212Z,10.40
2019-03-30T03:24:55.185Z,10.23
2019-03-30T03:27:21.970Z,10.10
2019-03-30T03:29:48.950Z,9.90
2019-03-30T03:32:15.901Z,10.20
2019-03-30T03:34:43.104Z,9.90
2019-03-30T03:37:10.258Z,9.70
2019-03-30T03:39:37.373Z,9.83
2019-03-30T03:42:04.876Z,10.15
2019-03-30T03:44:32.289Z,10.53
2019-03-30T03:46:59.165Z,10.13
2019-03-30T03:49:25.950Z,9.90
2019-03-30T03:51:53.335Z,10.03
2019-03-30T03:54:20.465Z,9.93
2019-03-30T03:56:47.613Z,10.63
2019-03-30T03:59:15.510Z,9.83
2019-03-30T04:01:45.102Z,10.15
2019-03-30T04:04:15.215Z,9.75
2019-03-30T04:06:43.958Z,9.70
2019-03-30T04:09:14.739Z,10.95
2019-03-30T04:11:42.637Z,10.63
2019-03-30T04:14:12.640Z,10.48
2019-03-30T04:16:39.581Z,10.88
2019-03-30T04:19:06.441Z,11.28
2019-03-30T04:21:43.818Z,10.98
2019-03-30T04:24:02.395Z,11.12
2019-03-30T04:26:29.463Z,10.75
2019-03-30T04:28:56.871Z,10.30
2019-03-30T04:31:24.006Z,10.85
2019-03-30T04:33:53.963Z,10.95
2019-03-30T04:36:21.080Z,10.82
2019-03-30T04:38:47.861Z,10.30
2019-03-30T04:41:14.917Z,10.90
2019-03-30T04:43:41.758Z,11.33
2019-03-30T04:46:08.584Z,9.98
2019-03-30T04:48:35.390Z,10.43
2019-03-30T04:51:02.251Z,11.30
2019-03-30T04:53:29.125Z,10.05
2019-03-30T04:55:57.006Z,11.38
2019-03-30T04:58:23.916Z,11.22
2019-03-30T05:00:50.825Z,11.93
2019-03-30T05:03:17.594Z,11.93
2019-03-30T05:05:44.971Z,11.00
2019-03-30T05:08:12.426Z,10.60
2019-03-30T05:10:39.216Z,11.48
2019-03-30T05:13:06.688Z,11.35
2019-03-30T05:15:36.584Z,11.50
2019-03-30T05:18:03.568Z,11.20
2019-03-30T05:20:30.936Z,10.28
2019-03-30T05:23:01.470Z,10.98
2019-03-30T05:25:29.107Z,10.55
2019-03-30T05:27:55.865Z,10.20
2019-03-30T05:30:22.765Z,10.30
2019-03-30T05:32:49.766Z,10.20
2019-03-30T05:35:16.898Z,10.20
2019-03-30T05:37:44.003Z,10.53
2019-03-30T05:40:11.589Z,10.20
2019-03-30T05:42:38.589Z,10.08
2019-03-30T05:45:06.353Z,10.72
2019-03-30T05:47:33.536Z,10.58
2019-03-30T05:50:00.884Z,9.88
2019-03-30T05:52:27.662Z,10.23
2019-03-30T05:54:54.600Z,10.00
2019-03-30T05:57:21.385Z,10.05
2019-03-30T05:59:48.127Z,10.58
2019-03-30T06:02:14.992Z,10.63
2019-03-30T06:04:42.771Z,10.25
2019-03-30T06:07:10.005Z,9.90
2019-03-30T06:09:36.779Z,10.30
2019-03-30T06:12:03.916Z,9.95
2019-03-30T06:14:31.282Z,9.58
2019-03-30T06:16:58.616Z,10.53
2019-03-30T06:19:25.691Z,10.35
2019-03-30T06:21:54.290Z,10.32
2019-03-30T06:24:21.089Z,10.10
2019-03-30T06:26:48.356Z,10.28
2019-03-30T06:29:15.095Z,11.18
2019-03-30T06:31:42.409Z,11.08
2019-03-30T06:34:09.137Z,11.50
2019-03-30T06:36:36.624Z,10.23
2019-03-30T06:39:04.928Z,9.88
2019-03-30T06:41:31.893Z,10.38
2019-03-30T06:44:01.311Z,10.35
2019-03-30T06:46:28.282Z,11.18
2019-03-30T06:48:55.466Z,10.53
2019-03-30T06:51:22.289Z,9.90
2019-03-30T06:53:49.030Z,10.82
2019-03-30T06:56:15.838Z,11.00
2019-03-30T06:58:43.233Z,10.20
2019-03-30T07:01:11.349Z,10.55
2019-03-30T07:03:40.512Z,10.25
2019-03-30T07:06:10.340Z,10.35
2019-03-30T07:08:41.559Z,10.13
2019-03-30T07:11:21.149Z,10.08
2019-03-30T07:13:42.924Z,9.70
2019-03-30T07:16:09.849Z,10.43
2019-03-30T07:18:41.556Z,11.25
2019-03-30T07:21:08.945Z,10.70
2019-03-30T07:23:35.859Z,10.28
2019-03-30T07:26:03.132Z,9.63
2019-03-30T07:28:30.030Z,10.13
2019-03-30T07:30:57.142Z,9.85
2019-03-30T07:33:24.009Z,9.73
2019-03-30T07:35:50.819Z,9.43
2019-03-30T07:38:18.482Z,10.05
2019-03-30T07:40:45.561Z,9.83
2019-03-30T07:43:13.360Z,9.43
2019-03-30T07:45:40.643Z,9.98
2019-03-30T07:48:07.812Z,10.25
2019-03-30T07:50:34.782Z,10.43
2019-03-30T07:53:01.787Z,10.35
2019-03-30T07:58:25.556Z,11.03
2019-03-30T08:00:52.461Z,11.25
2019-03-30T08:03:20.419Z,11.83
2019-03-30T08:05:48.927Z,12.23
2019-03-30T08:08:16.105Z,12.43
2019-03-30T08:10:46.228Z,12.63
2019-03-30T08:13:13.688Z,12.15
2019-03-30T08:15:40.679Z,12.47
2019-03-30T08:18:08.372Z,12.15
2019-03-30T08:20:35.160Z,14.23
2019-03-30T08:23:04.418Z,11.83
2019-03-30T08:25:32.121Z,13.00
2019-03-30T08:27:59.310Z,13.93
2019-03-30T08:30:28.551Z,13.32
2019-03-30T08:32:55.762Z,13.88
2019-03-30T08:35:23.390Z,13.00
2019-03-30T08:37:50.339Z,13.90
2019-03-30T08:40:17.310Z,13.78
2019-03-30T08:42:44.113Z,12.80
2019-03-30T08:45:11.103Z,12.75
2019-03-30T08:47:37.992Z,11.57
2019-03-30T08:50:06.827Z,12.28
2019-03-30T08:52:34.005Z,12.50
2019-03-30T08:55:00.902Z,12.78
2019-03-30T08:57:27.849Z,12.30
2019-03-30T08:59:54.710Z,12.03
2019-03-30T09:02:21.532Z,10.95
2019-03-30T09:04:48.356Z,12.58
2019-03-30T09:07:16.582Z,13.25
2019-03-30T09:09:43.571Z,12.82
2019-03-30T09:12:10.463Z,11.73
2019-03-30T09:14:37.704Z,13.10
2019-03-30T09:17:06.204Z,11.80
2019-03-30T09:19:33.332Z,12.20
2019-03-30T09:22:00.207Z,12.63
2019-03-30T09:24:27.429Z,12.70
2019-03-30T09:26:54.477Z,11.80
2019-03-30T09:29:21.658Z,12.25
2019-03-30T09:31:48.662Z,12.25
2019-03-30T09:34:16.538Z,13.03
2019-03-30T09:36:43.656Z,12.07
2019-03-30T09:39:10.946Z,11.48
2019-03-30T09:41:37.746Z,12.50
2019-03-30T09:44:05.230Z,11.65
2019-03-30T09:46:32.192Z,12.43
2019-03-30T09:48:59.503Z,12.37
2019-03-30T09:51:28.733Z,12.37
2019-03-30T09:53:55.911Z,12.50
2019-03-30T09:56:23.202Z,12.80
2019-03-30T09:58:50.948Z,11.93
2019-03-30T10:01:17.937Z,12.10
2019-03-30T10:03:44.861Z,11.97
2019-03-30T10:06:12.018Z,12.30
2019-03-30T10:08:39.201Z,11.90
2019-03-30T10:11:06.191Z,11.48
2019-03-30T10:13:33.185Z,11.57
2019-03-30T10:16:00.165Z,11.43
2019-03-30T10:18:27.395Z,11.12
2019-03-30T10:20:54.694Z,11.08
2019-03-30T10:23:22.037Z,11.12
2019-03-30T10:25:48.976Z,12.00
2019-03-30T10:28:17.565Z,11.20
2019-03-30T10:30:45.430Z,10.72
2019-03-30T10:33:12.652Z,11.18
2019-03-30T10:35:39.794Z,11.10
2019-03-30T10:38:06.819Z,10.98
2019-03-30T10:40:33.925Z,13.03
2019-03-30T10:43:03.154Z,12.03
2019-03-30T10:45:33.820Z,10.95
2019-03-30T10:48:00.918Z,10.82
2019-03-30T10:50:27.788Z,11.03
2019-03-30T10:52:54.991Z,10.43
2019-03-30T10:55:21.877Z,9.95
2019-03-30T10:57:48.891Z,10.23
2019-03-30T11:00:27.018Z,10.13
2019-03-30T11:02:53.931Z,10.10
2019-03-30T11:05:20.966Z,10.05
2019-03-30T11:07:47.937Z,9.73
2019-03-30T11:10:14.931Z,9.38
2019-03-30T11:12:41.777Z,9.43
2019-03-30T11:15:09.021Z,11.03
2019-03-30T11:17:36.022Z,9.25
2019-03-30T11:20:06.152Z,11.63
2019-03-30T11:22:35.714Z,10.45
2019-03-30T11:25:08.687Z,9.85
2019-03-30T11:27:34.426Z,9.98
2019-03-30T11:30:02.043Z,9.13
2019-03-30T11:32:30.077Z,10.18
2019-03-30T11:34:57.255Z,9.20
2019-03-30T11:37:24.065Z,9.03
2019-03-30T11:39:51.385Z,9.45
2019-03-30T11:42:18.224Z,9.48
2019-03-30T11:44:47.971Z,9.05
2019-03-30T11:47:14.975Z,9.65
2019-03-30T11:49:41.731Z,8.23
2019-03-30T11:52:08.810Z,8.73
2019-03-30T11:54:36.303Z,8.70
2019-03-30T11:57:03.339Z,8.78
2019-03-30T11:59:30.303Z,8.40
2019-03-30T12:01:58.437Z,8.70
2019-03-30T12:04:25.528Z,8.83
2019-03-30T12:06:53.008Z,8.78
2019-03-30T12:09:20.326Z,8.23
2019-03-30T12:11:48.200Z,8.05
2019-03-30T12:14:15.239Z,8.28
2019-03-30T12:16:46.057Z,8.65
2019-03-30T12:19:12.975Z,9.25
2019-03-30T12:21:39.939Z,8.83
2019-03-30T12:24:06.955Z,9.98
2019-03-30T12:26:34.025Z,9.80
2019-03-30T12:29:01.131Z,8.40
2019-03-30T12:31:29.579Z,8.58
2019-03-30T12:33:56.659Z,7.87
2019-03-30T12:36:24.028Z,8.73
2019-03-30T12:38:51.063Z,8.60
2019-03-30T12:41:17.959Z,9.18
2019-03-30T12:43:44.825Z,7.95
2019-03-30T12:46:12.086Z,8.55
2019-03-30T12:48:39.026Z,9.13
2019-03-30T12:51:05.956Z,8.23
2019-03-30T12:53:32.786Z,8.98
2019-03-30T12:56:00.166Z,8.93
2019-03-30T12:58:26.996Z,8.43
2019-03-30T13:00:54.240Z,7.92
2019-03-30T13:03:21.564Z,7.55
2019-03-30T13:05:48.648Z,6.92
2019-03-30T13:08:15.483Z,7.35
2019-03-30T13:10:45.326Z,6.78
2019-03-30T13:13:41.461Z,7.08
2019-03-30T13:16:13.594Z,6.70
2019-03-30T13:18:41.426Z,6.95
2019-03-30T13:21:08.840Z,7.05
2019-03-30T13:23:36.159Z,6.33
2019-03-30T13:26:04.963Z,8.10
2019-03-30T13:28:32.704Z,6.40
2019-03-30T13:30:59.563Z,6.60
2019-03-30T13:33:26.485Z,6.15
2019-03-30T13:35:53.577Z,5.75
2019-03-30T13:38:20.819Z,6.17
2019-03-30T13:40:48.450Z,6.10
2019-03-30T13:43:15.579Z,5.95
2019-03-30T13:45:42.535Z,5.47
2019-03-30T13:48:11.356Z,5.75
2019-03-30T13:50:38.854Z,5.80
2019-03-30T13:53:06.062Z,6.45
2019-03-30T13:55:32.873Z,5.40
2019-03-30T13:58:00.041Z,6.00
2019-03-30T14:00:26.915Z,5.37
2019-03-30T14:02:53.916Z,4.67
2019-03-30T14:05:20.995Z,5.37
2019-03-30T14:07:47.776Z,5.20
2019-03-30T14:10:14.648Z,5.12
2019-03-30T14:12:41.790Z,4.95
2019-03-30T14:15:09.765Z,5.28
2019-03-30T14:17:36.807Z,5.37
2019-03-30T14:20:06.811Z,6.55
2019-03-30T14:22:33.762Z,6.90
2019-03-30T14:25:01.054Z,5.17
2019-03-30T14:27:27.848Z,5.72
2019-03-30T14:29:54.654Z,5.87
2019-03-30T14:32:21.821Z,5.62
2019-03-30T14:34:48.602Z,5.62
2019-03-30T14:37:15.689Z,5.20
2019-03-30T14:39:44.492Z,5.17
2019-03-30T14:42:11.351Z,5.40
2019-03-30T14:44:38.170Z,5.08
2019-03-30T14:47:05.333Z,5.08
2019-03-30T14:49:32.143Z,5.10
2019-03-30T14:51:58.923Z,5.33
2019-03-30T14:54:25.877Z,5.55
2019-03-30T14:56:54.140Z,5.15
2019-03-30T14:59:21.067Z,5.60
2019-03-30T15:01:48.427Z,4.90
2019-03-30T15:04:16.433Z,5.05
2019-03-30T15:06:43.371Z,4.65
2019-03-30T15:09:12.154Z,4.95
2019-03-30T15:11:39.339Z,4.72
2019-03-30T15:14:06.181Z,5.65
2019-03-30T15:16:33.500Z,5.03
2019-03-30T15:19:00.405Z,5.05
2019-03-30T15:21:27.568Z,5.40
2019-03-30T15:23:54.424Z,5.20
2019-03-30T15:26:22.199Z,5.58
2019-03-30T15:28:49.565Z,5.62
2019-03-30T15:31:16.555Z,5.90
2019-03-30T15:33:43.729Z,5.50
2019-03-30T15:36:10.626Z,5.60
2019-03-30T15:38:37.572Z,5.45
2019-03-30T15:41:04.330Z,5.35
2019-03-30T15:43:38.264Z,5.25
2019-03-30T15:46:00.304Z,4.90
2019-03-30T15:48:28.343Z,5.30
2019-03-30T15:50:55.346Z,4.90
2019-03-30T15:53:22.423Z,5.20
2019-03-30T15:55:49.655Z,6.67
2019-03-30T15:58:16.588Z,5.05
2019-03-30T16:00:43.459Z,6.00
2019-03-30T16:03:10.329Z,5.22
2019-03-30T16:05:37.254Z,5.55
2019-03-30T16:08:04.271Z,4.92
2019-03-30T16:10:31.973Z,5.70
2019-03-30T16:12:59.018Z,5.53
2019-03-30T16:15:28.461Z,5.80
2019-03-30T16:17:55.712Z,6.17
2019-03-30T16:20:22.965Z,5.10
2019-03-30T16:22:54.951Z,5.25
2019-03-30T16:25:25.531Z,5.20
2019-03-30T16:27:52.417Z,5.75
2019-03-30T16:30:19.995Z,6.00
2019-03-30T16:32:46.806Z,5.65
2019-03-30T16:35:13.762Z,7.40
2019-03-30T16:37:40.694Z,7.30
2019-03-30T16:40:08.653Z,5.53
2019-03-30T16:42:36.357Z,6.22
2019-03-30T16:45:06.168Z,6.40
2019-03-30T16:47:34.220Z,5.40
2019-03-30T16:50:01.109Z,6.12
2019-03-30T16:52:27.980Z,7.40
2019-03-30T16:54:55.002Z,6.45
2019-03-30T16:57:21.796Z,6.03
2019-03-30T16:59:49.109Z,5.80
2019-03-30T17:02:16.270Z,6.03
2019-03-30T17:04:43.532Z,5.70
2019-03-30T17:07:10.553Z,5.97
2019-03-30T17:09:37.935Z,7.15
2019-03-30T17:12:05.304Z,6.72
2019-03-30T17:14:32.128Z,6.53
2019-03-30T17:16:59.068Z,6.05
2019-03-30T17:19:26.198Z,10.82
2019-03-30T17:21:53.140Z,8.70
2019-03-30T17:24:19.977Z,7.65
2019-03-30T17:26:49.830Z,8.68
2019-03-30T17:29:16.762Z,10.32
2019-03-30T17:31:44.312Z,12.43
2019-03-30T17:34:11.664Z,10.45
2019-03-30T17:36:38.489Z,15.23
2019-03-30T17:39:08.558Z,11.45
2019-03-30T17:41:35.887Z,13.40
2019-03-30T17:44:03.458Z,13.30
2019-03-30T17:46:30.443Z,11.68
2019-03-30T17:48:57.460Z,10.82
2019-03-30T17:51:24.243Z,8.75
2019-03-30T17:53:51.236Z,7.03
2019-03-30T17:56:17.993Z,6.47
2019-03-30T17:58:44.791Z,6.72
2019-03-30T18:01:11.776Z,6.80
2019-03-30T18:03:38.531Z,6.42
2019-03-30T18:06:05.703Z,6.05
2019-03-30T18:08:32.996Z,6.05
2019-03-30T18:11:03.854Z,5.70
2019-03-30T18:13:29.216Z,5.03
2019-03-30T18:15:56.201Z,5.50
2019-03-30T18:18:23.899Z,5.75
2019-03-30T18:20:51.289Z,5.70
2019-03-30T18:23:18.670Z,4.55
2019-03-30T18:25:45.765Z,5.15
2019-03-30T18:28:26.596Z,5.20
2019-03-30T18:30:42.804Z,4.85
2019-03-30T18:33:09.818Z,4.05
2019-03-30T18:35:38.835Z,4.55
2019-03-30T18:38:06.079Z,4.70
2019-03-30T18:40:33.582Z,5.30
2019-03-30T18:43:02.425Z,6.83
2019-03-30T18:45:30.392Z,6.12
2019-03-30T18:48:11.144Z,6.17
2019-03-30T18:50:40.151Z,5.45
2019-03-30T18:53:07.764Z,4.92
2019-03-30T18:55:36.337Z,4.90
2019-03-30T18:58:04.170Z,5.80
2019-03-30T19:00:31.021Z,5.47
2019-03-30T19:03:00.118Z,6.42
2019-03-30T19:05:26.987Z,6.53
2019-03-30T19:07:54.401Z,6.60
2019-03-30T19:10:21.435Z,6.45
2019-03-30T19:12:48.352Z,6.80
2019-03-30T19:15:16.195Z,6.30
2019-03-30T19:17:43.004Z,5.58
2019-03-30T19:20:10.600Z,5.95
2019-03-30T19:22:40.567Z,5.90
2019-03-30T19:25:07.716Z,6.30
2019-03-30T19:27:35.640Z,6.83
2019-03-30T19:30:09.974Z,6.53
2019-03-30T19:32:36.754Z,7.03
2019-03-30T19:35:05.367Z,6.62
2019-03-30T19:37:32.337Z,6.90
2019-03-30T19:39:59.518Z,7.12
2019-03-30T19:42:26.661Z,7.05
2019-03-30T19:44:53.835Z,7.15
2019-03-30T19:47:20.737Z,7.92
2019-03-30T19:49:49.273Z,7.72
2019-03-30T19:52:16.626Z,8.13
2019-03-30T19:54:43.536Z,7.83
2019-03-30T19:57:10.615Z,7.40
2019-03-30T19:59:38.258Z,8.08
2019-03-30T20:02:05.886Z,7.92
2019-03-30T20:04:36.631Z,8.35
2019-03-30T20:07:03.999Z,7.50
2019-03-30T20:09:31.278Z,8.20
2019-03-30T20:11:58.214Z,7.90
2019-03-30T20:14:28.243Z,7.55
2019-03-30T20:16:55.887Z,7.50
2019-03-30T20:19:23.122Z,8.08
2019-03-30T20:21:50.789Z,7.92
2019-03-30T20:24:18.005Z,7.40
2019-03-30T20:26:45.049Z,7.90
2019-03-30T20:29:24.649Z,7.22
2019-03-30T20:31:41.426Z,7.17
2019-03-30T20:34:09.830Z,7.37
2019-03-30T20:36:39.006Z,7.50
2019-03-30T20:39:08.487Z,7.62
2019-03-30T20:41:35.600Z,8.23
2019-03-30T20:44:03.640Z,8.68
2019-03-30T20:46:30.961Z,8.63
2019-03-30T20:48:58.231Z,8.45
2019-03-30T20:51:25.026Z,8.58
2019-03-30T20:53:51.775Z,8.83
2019-03-30T20:56:18.650Z,8.30
2019-03-30T20:58:45.555Z,8.25
2019-03-30T21:01:12.520Z,8.23
2019-03-30T21:03:39.648Z,8.15
2019-03-30T21:06:06.800Z,8.08
2019-03-30T21:08:34.096Z,7.67
2019-03-30T21:11:01.060Z,8.63
2019-03-30T21:13:29.365Z,7.75
2019-03-30T21:15:56.775Z,8.10
2019-03-30T21:18:24.400Z,7.95
2019-03-30T21:20:52.746Z,7.70
2019-03-30T21:23:19.914Z,7.12
2019-03-30T21:25:47.497Z,6.85
2019-03-30T21:28:14.545Z,7.42
2019-03-30T21:30:42.234Z,7.35
2019-03-30T21:33:10.159Z,6.90
2019-03-30T21:35:39.033Z,7.05
2019-03-30T21:38:06.484Z,7.40
2019-03-30T21:40:35.681Z,6.95
2019-03-30T21:43:02.881Z,7.35
2019-03-30T21:45:30.398Z,7.60
2019-03-30T21:47:57.325Z,7.62
2019-03-30T21:50:24.635Z,7.50
2019-03-30T21:52:52.039Z,7.35
2019-03-30T21:55:18.938Z,7.75
2019-03-30T21:57:46.272Z,7.78
2019-03-30T22:00:25.820Z,7.37
2019-03-30T22:02:56.045Z,7.30
2019-03-30T22:05:25.446Z,7.92
2019-03-30T22:07:52.852Z,7.28
2019-03-30T22:10:28.378Z,7.83
2019-03-30T22:12:56.399Z,7.70
2019-03-30T22:15:28.710Z,7.55
2019-03-30T22:17:56.372Z,6.92
2019-03-30T22:20:24.584Z,7.37
2019-03-30T22:22:53.689Z,7.72
2019-03-30T22:25:20.723Z,7.00
2019-03-30T22:27:49.775Z,7.12
2019-03-30T22:30:24.645Z,7.35
2019-03-30T22:32:46.033Z,7.37
2019-03-30T22:35:13.835Z,7.40
2019-03-30T22:37:41.170Z,7.20
2019-03-30T22:40:10.277Z,7.17
2019-03-30T22:42:37.474Z,7.15
2019-03-30T22:45:06.383Z,7.05
2019-03-30T22:47:34.194Z,7.17
2019-03-30T22:50:05.566Z,6.53
2019-03-30T22:52:32.356Z,7.33
2019-03-30T22:54:59.536Z,6.65
2019-03-30T22:57:27.172Z,6.78
2019-03-30T22:59:54.596Z,5.90
2019-03-30T23:02:23.224Z,6.97
2019-03-30T23:04:50.499Z,7.03
2019-03-30T23:07:17.561Z,7.22
2019-03-30T23:09:44.878Z,7.10
2019-03-30T23:12:12.276Z,6.72
2019-03-30T23:14:40.720Z,6.70
2019-03-30T23:17:07.638Z,7.17
2019-03-30T23:19:34.657Z,6.97
2019-03-30T23:22:01.787Z,6.67
2019-03-30T23:24:28.793Z,6.90
2019-03-30T23:26:55.668Z,7.45
2019-03-30T23:29:22.652Z,7.10
2019-03-30T23:31:51.403Z,6.67
2019-03-30T23:34:18.607Z,6.65
2019-03-30T23:36:46.210Z,6.90
2019-03-30T23:39:14.288Z,7.50
2019-03-30T23:41:44.596Z,6.55
2019-03-30T23:44:13.091Z,6.95
2019-03-30T23:46:43.972Z,6.95
2019-03-30T23:49:11.105Z,6.65
2019-03-30T23:51:39.111Z,7.20
2019-03-30T23:54:14.362Z,6.60
2019-03-30T23:56:43.208Z,7.10
2019-03-30T23:59:10.497Z,7.20
